sensor_id;sensor_type;location;lat;lon;timestamp;temperature;humidity
47520;DHT22;33252;48.122;11.538;2023-01-26T00:00:52;-0.30;99.90
47520;DHT22;33252;48.122;11.538;2023-01-26T00:03:18;-0.30;99.90
47520;DHT22;33252;48.122;11.538;2023-01-26T00:05:44;-0.40;99.90
47520;DHT22;33252;48.122;11.538;2023-01-26T00:08:11;-0.40;99.90
47520;DHT22;33252;48.122;11.538;2023-01-26T00:10:38;-0.30;99.90
47520;DHT22;33252;48.122;11.538;2023-01-26T00:13:05;-0.40;99.90
47520;DHT22;33252;48.122;11.538;2023-01-26T00:15:32;-0.40;99.90
47520;DHT22;33252;48.122;11.538;2023-01-26T00:17:59;-0.40;99.90
47520;DHT22;33252;48.122;11.538;2023-01-26T00:20:25;-0.40;99.90
47520;DHT22;33252;48.122;11.538;2023-01-26T00:22:51;-0.40;99.90
47520;DHT22;33252;48.122;11.538;2023-01-26T00:25:16;-0.40;99.90
47520;DHT22;33252;48.122;11.538;2023-01-26T00:27:42;-0.40;99.90
47520;DHT22;33252;48.122;11.538;2023-01-26T00:30:08;-0.40;99.90
47520;DHT22;33252;48.122;11.538;2023-01-26T00:32:34;-0.40;99.90
47520;DHT22;33252;48.122;11.538;2023-01-26T00:35:00;-0.40;99.90
47520;DHT22;33252;48.122;11.538;2023-01-26T00:37:26;-0.40;99.90
47520;DHT22;33252;48.122;11.538;2023-01-26T00:39:52;-0.50;99.90
47520;DHT22;33252;48.122;11.538;2023-01-26T00:42:17;-0.40;99.90
47520;DHT22;33252;48.122;11.538;2023-01-26T00:44:43;-0.40;99.90
47520;DHT22;33252;48.122;11.538;2023-01-26T00:47:11;-0.60;99.90
47520;DHT22;33252;48.122;11.538;2023-01-26T00:49:37;-0.80;99.90
47520;DHT22;33252;48.122;11.538;2023-01-26T00:52:03;-0.80;99.90
47520;DHT22;33252;48.122;11.538;2023-01-26T00:54:29;-0.80;99.90
47520;DHT22;33252;48.122;11.538;2023-01-26T00:56:55;-0.80;99.90
47520;DHT22;33252;48.122;11.538;2023-01-26T00:59:21;-0.60;99.90
47520;DHT22;33252;48.122;11.538;2023-01-26T01:01:47;-0.50;99.90
47520;DHT22;33252;48.122;11.538;2023-01-26T01:04:13;-0.60;99.90
47520;DHT22;33252;48.122;11.538;2023-01-26T01:06:39;-0.60;99.90
47520;DHT22;33252;48.122;11.538;2023-01-26T01:09:05;-0.50;99.90
47520;DHT22;33252;48.122;11.538;2023-01-26T01:11:31;-0.40;99.90
47520;DHT22;33252;48.122;11.538;2023-01-26T01:13:57;-0.40;99.90
47520;DHT22;33252;48.122;11.538;2023-01-26T01:16:23;-0.50;99.90
47520;DHT22;33252;48.122;11.538;2023-01-26T01:18:52;-0.60;99.90
47520;DHT22;33252;48.122;11.538;2023-01-26T01:21:19;-0.60;99.90
47520;DHT22;33252;48.122;11.538;2023-01-26T01:23:45;-0.70;99.90
47520;DHT22;33252;48.122;11.538;2023-01-26T01:26:11;-0.60;99.90
47520;DHT22;33252;48.122;11.538;2023-01-26T01:28:37;-0.60;99.90
47520;DHT22;33252;48.122;11.538;2023-01-26T01:31:08;-0.60;99.90
47520;DHT22;33252;48.122;11.538;2023-01-26T01:33:34;-0.60;99.90
47520;DHT22;33252;48.122;11.538;2023-01-26T01:36:03;-0.70;99.90
47520;DHT22;33252;48.122;11.538;2023-01-26T01:38:29;-0.50;99.90
47520;DHT22;33252;48.122;11.538;2023-01-26T01:40:56;-0.50;99.90
47520;DHT22;33252;48.122;11.538;2023-01-26T01:43:26;-0.60;99.90
47520;DHT22;33252;48.122;11.538;2023-01-26T01:45:53;-0.60;99.90
47520;DHT22;33252;48.122;11.538;2023-01-26T01:48:34;-0.60;99.90
47520;DHT22;33252;48.122;11.538;2023-01-26T01:51:05;-0.60;99.90
47520;DHT22;33252;48.122;11.538;2023-01-26T01:53:36;-0.60;99.90
47520;DHT22;33252;48.122;11.538;2023-01-26T01:56:06;-0.60;99.90
47520;DHT22;33252;48.122;11.538;2023-01-26T01:58:35;-0.50;99.90
47520;DHT22;33252;48.122;11.538;2023-01-26T02:01:01;-0.50;99.90
47520;DHT22;33252;48.122;11.538;2023-01-26T02:03:28;-0.50;99.90
47520;DHT22;33252;48.122;11.538;2023-01-26T02:08:28;-0.50;99.90
47520;DHT22;33252;48.122;11.538;2023-01-26T02:10:58;-0.60;99.90
47520;DHT22;33252;48.122;11.538;2023-01-26T02:13:25;-0.50;99.90
47520;DHT22;33252;48.122;11.538;2023-01-26T02:15:52;-0.40;99.90
47520;DHT22;33252;48.122;11.538;2023-01-26T02:18:18;-0.50;99.90
47520;DHT22;33252;48.122;11.538;2023-01-26T02:20:50;-0.60;99.90
47520;DHT22;33252;48.122;11.538;2023-01-26T02:23:26;-0.60;99.90
47520;DHT22;33252;48.122;11.538;2023-01-26T02:28:24;-0.60;99.90
47520;DHT22;33252;48.122;11.538;2023-01-26T02:30:51;-0.50;99.90
47520;DHT22;33252;48.122;11.538;2023-01-26T02:33:28;-0.50;99.90
47520;DHT22;33252;48.122;11.538;2023-01-26T02:35:53;-0.40;99.90
47520;DHT22;33252;48.122;11.538;2023-01-26T02:38:21;-0.50;99.90
47520;DHT22;33252;48.122;11.538;2023-01-26T02:43:19;-0.60;99.90
47520;DHT22;33252;48.122;11.538;2023-01-26T02:45:45;-0.50;99.90
47520;DHT22;33252;48.122;11.538;2023-01-26T02:48:11;-0.50;99.90
47520;DHT22;33252;48.122;11.538;2023-01-26T02:50:36;-0.60;99.90
47520;DHT22;33252;48.122;11.538;2023-01-26T02:53:02;-0.50;99.90
47520;DHT22;33252;48.122;11.538;2023-01-26T02:55:28;-0.50;99.90
47520;DHT22;33252;48.122;11.538;2023-01-26T02:57:55;-0.60;99.90
47520;DHT22;33252;48.122;11.538;2023-01-26T03:00:23;-0.50;99.90
47520;DHT22;33252;48.122;11.538;2023-01-26T03:02:51;-0.50;99.90
47520;DHT22;33252;48.122;11.538;2023-01-26T03:05:18;-0.50;99.90
47520;DHT22;33252;48.122;11.538;2023-01-26T03:07:43;-0.50;99.90
47520;DHT22;33252;48.122;11.538;2023-01-26T03:10:09;-0.40;99.90
47520;DHT22;33252;48.122;11.538;2023-01-26T03:12:35;-0.50;99.90
47520;DHT22;33252;48.122;11.538;2023-01-26T03:15:01;-0.40;99.90
47520;DHT22;33252;48.122;11.538;2023-01-26T03:17:45;-0.40;99.90
47520;DHT22;33252;48.122;11.538;2023-01-26T03:20:11;-0.50;99.90
47520;DHT22;33252;48.122;11.538;2023-01-26T03:22:55;-0.40;99.90
47520;DHT22;33252;48.122;11.538;2023-01-26T03:25:40;-0.50;99.90
47520;DHT22;33252;48.122;11.538;2023-01-26T03:28:25;-0.40;99.90
47520;DHT22;33252;48.122;11.538;2023-01-26T03:30:53;-0.40;99.90
47520;DHT22;33252;48.122;11.538;2023-01-26T03:33:19;-0.60;99.90
47520;DHT22;33252;48.122;11.538;2023-01-26T03:35:45;-0.70;99.90
47520;DHT22;33252;48.122;11.538;2023-01-26T03:38:11;-0.60;99.90
47520;DHT22;33252;48.122;11.538;2023-01-26T03:40:37;-0.60;99.90
47520;DHT22;33252;48.122;11.538;2023-01-26T03:43:21;-0.70;99.90
47520;DHT22;33252;48.122;11.538;2023-01-26T03:46:06;-0.70;99.90
47520;DHT22;33252;48.122;11.538;2023-01-26T03:48:51;-0.60;99.90
47520;DHT22;33252;48.122;11.538;2023-01-26T03:51:36;-0.70;99.90
47520;DHT22;33252;48.122;11.538;2023-01-26T03:54:21;-0.60;99.90
47520;DHT22;33252;48.122;11.538;2023-01-26T03:57:05;-0.60;99.90
47520;DHT22;33252;48.122;11.538;2023-01-26T03:59:31;-0.60;99.90
47520;DHT22;33252;48.122;11.538;2023-01-26T04:02:08;-0.60;99.90
47520;DHT22;33252;48.122;11.538;2023-01-26T04:04:54;-0.70;99.90
47520;DHT22;33252;48.122;11.538;2023-01-26T04:07:39;-0.70;99.90
47520;DHT22;33252;48.122;11.538;2023-01-26T04:10:23;-0.90;99.90
47520;DHT22;33252;48.122;11.538;2023-01-26T04:12:49;-0.70;99.90
47520;DHT22;33252;48.122;11.538;2023-01-26T04:15:37;-0.70;99.90
47520;DHT22;33252;48.122;11.538;2023-01-26T04:18:21;-0.60;99.90
47520;DHT22;33252;48.122;11.538;2023-01-26T04:21:06;-0.50;99.90
47520;DHT22;33252;48.122;11.538;2023-01-26T04:23:52;-0.60;99.90
47520;DHT22;33252;48.122;11.538;2023-01-26T04:26:21;-0.60;99.90
47520;DHT22;33252;48.122;11.538;2023-01-26T04:28:47;-0.70;99.90
47520;DHT22;33252;48.122;11.538;2023-01-26T04:31:12;-0.60;99.90
47520;DHT22;33252;48.122;11.538;2023-01-26T04:33:38;-0.60;99.90
47520;DHT22;33252;48.122;11.538;2023-01-26T04:36:04;-0.70;99.90
47520;DHT22;33252;48.122;11.538;2023-01-26T04:38:30;-0.70;99.90
47520;DHT22;33252;48.122;11.538;2023-01-26T04:40:56;-0.60;99.90
47520;DHT22;33252;48.122;11.538;2023-01-26T04:43:22;-0.60;99.90
47520;DHT22;33252;48.122;11.538;2023-01-26T04:46:07;-0.60;99.90
47520;DHT22;33252;48.122;11.538;2023-01-26T04:48:33;-0.60;99.90
47520;DHT22;33252;48.122;11.538;2023-01-26T04:51:04;-0.70;99.90
47520;DHT22;33252;48.122;11.538;2023-01-26T04:53:32;-0.70;99.90
47520;DHT22;33252;48.122;11.538;2023-01-26T04:55:59;-0.70;99.90
47520;DHT22;33252;48.122;11.538;2023-01-26T04:58:25;-0.80;99.90
47520;DHT22;33252;48.122;11.538;2023-01-26T05:00:55;-0.70;99.90
47520;DHT22;33252;48.122;11.538;2023-01-26T05:03:22;-0.80;99.90
47520;DHT22;33252;48.122;11.538;2023-01-26T05:05:49;-0.70;99.90
47520;DHT22;33252;48.122;11.538;2023-01-26T05:08:16;-0.80;99.90
47520;DHT22;33252;48.122;11.538;2023-01-26T05:10:42;-0.80;99.90
47520;DHT22;33252;48.122;11.538;2023-01-26T05:13:08;-0.70;99.90
47520;DHT22;33252;48.122;11.538;2023-01-26T05:15:34;-0.80;99.90
47520;DHT22;33252;48.122;11.538;2023-01-26T05:18:00;-0.70;99.90
47520;DHT22;33252;48.122;11.538;2023-01-26T05:20:26;-0.70;99.90
47520;DHT22;33252;48.122;11.538;2023-01-26T05:22:52;-0.70;99.90
47520;DHT22;33252;48.122;11.538;2023-01-26T05:25:18;-0.70;99.90
47520;DHT22;33252;48.122;11.538;2023-01-26T05:27:45;-0.70;99.90
47520;DHT22;33252;48.122;11.538;2023-01-26T05:30:11;-0.70;99.90
47520;DHT22;33252;48.122;11.538;2023-01-26T05:32:37;-0.70;99.90
47520;DHT22;33252;48.122;11.538;2023-01-26T05:35:04;-0.60;99.90
47520;DHT22;33252;48.122;11.538;2023-01-26T05:37:30;-0.80;99.90
47520;DHT22;33252;48.122;11.538;2023-01-26T05:39:56;-0.70;99.90
47520;DHT22;33252;48.122;11.538;2023-01-26T05:42:22;-0.80;99.90
47520;DHT22;33252;48.122;11.538;2023-01-26T05:44:48;-0.70;99.90
47520;DHT22;33252;48.122;11.538;2023-01-26T05:47:14;-0.70;99.90
47520;DHT22;33252;48.122;11.538;2023-01-26T05:49:39;-0.70;99.90
47520;DHT22;33252;48.122;11.538;2023-01-26T05:52:15;-0.60;99.90
47520;DHT22;33252;48.122;11.538;2023-01-26T05:54:40;-0.70;99.90
47520;DHT22;33252;48.122;11.538;2023-01-26T05:57:07;-0.80;99.90
47520;DHT22;33252;48.122;11.538;2023-01-26T05:59:33;-0.80;99.90
47520;DHT22;33252;48.122;11.538;2023-01-26T06:01:58;-0.70;99.90
47520;DHT22;33252;48.122;11.538;2023-01-26T06:04:25;-0.60;99.90
47520;DHT22;33252;48.122;11.538;2023-01-26T06:06:55;-0.80;99.90
47520;DHT22;33252;48.122;11.538;2023-01-26T06:09:21;-0.70;99.90
47520;DHT22;33252;48.122;11.538;2023-01-26T06:11:47;-0.70;99.90
47520;DHT22;33252;48.122;11.538;2023-01-26T06:14:13;-0.60;99.90
47520;DHT22;33252;48.122;11.538;2023-01-26T06:16:39;-0.60;99.90
47520;DHT22;33252;48.122;11.538;2023-01-26T06:19:04;-0.60;99.90
47520;DHT22;33252;48.122;11.538;2023-01-26T06:21:31;-0.70;99.90
47520;DHT22;33252;48.122;11.538;2023-01-26T06:23:57;-0.60;99.90
47520;DHT22;33252;48.122;11.538;2023-01-26T06:26:23;-0.70;99.90
47520;DHT22;33252;48.122;11.538;2023-01-26T06:28:50;-0.60;99.90
47520;DHT22;33252;48.122;11.538;2023-01-26T06:31:16;-0.60;99.90
47520;DHT22;33252;48.122;11.538;2023-01-26T06:33:43;-0.70;99.90
47520;DHT22;33252;48.122;11.538;2023-01-26T06:36:13;-0.70;99.90
47520;DHT22;33252;48.122;11.538;2023-01-26T06:38:48;-0.70;99.90
47520;DHT22;33252;48.122;11.538;2023-01-26T06:41:15;-0.80;99.90
47520;DHT22;33252;48.122;11.538;2023-01-26T06:43:45;-0.70;99.90
47520;DHT22;33252;48.122;11.538;2023-01-26T06:46:11;-0.70;99.90
47520;DHT22;33252;48.122;11.538;2023-01-26T06:48:37;-0.80;99.90
47520;DHT22;33252;48.122;11.538;2023-01-26T06:53:57;-0.80;99.90
47520;DHT22;33252;48.122;11.538;2023-01-26T06:56:23;-0.80;99.90
47520;DHT22;33252;48.122;11.538;2023-01-26T06:58:49;-0.70;99.90
47520;DHT22;33252;48.122;11.538;2023-01-26T07:01:21;-0.70;99.90
47520;DHT22;33252;48.122;11.538;2023-01-26T07:03:48;-0.70;99.90
47520;DHT22;33252;48.122;11.538;2023-01-26T07:06:13;-0.60;99.90
47520;DHT22;33252;48.122;11.538;2023-01-26T07:08:39;-0.70;99.90
47520;DHT22;33252;48.122;11.538;2023-01-26T07:11:06;-0.80;99.90
47520;DHT22;33252;48.122;11.538;2023-01-26T07:13:32;-0.70;99.90
47520;DHT22;33252;48.122;11.538;2023-01-26T07:16:08;-0.60;99.90
47520;DHT22;33252;48.122;11.538;2023-01-26T07:18:34;-0.80;99.90
47520;DHT22;33252;48.122;11.538;2023-01-26T07:21:08;-0.70;99.90
47520;DHT22;33252;48.122;11.538;2023-01-26T07:23:35;-0.70;99.90
47520;DHT22;33252;48.122;11.538;2023-01-26T07:26:01;-0.60;99.90
47520;DHT22;33252;48.122;11.538;2023-01-26T07:28:27;-0.70;99.90
47520;DHT22;33252;48.122;11.538;2023-01-26T07:30:58;-0.80;99.90
47520;DHT22;33252;48.122;11.538;2023-01-26T07:33:24;-0.80;99.90
47520;DHT22;33252;48.122;11.538;2023-01-26T07:35:53;-0.70;99.90
47520;DHT22;33252;48.122;11.538;2023-01-26T07:38:18;-0.60;99.90
47520;DHT22;33252;48.122;11.538;2023-01-26T07:40:44;-0.60;99.90
47520;DHT22;33252;48.122;11.538;2023-01-26T07:43:10;-0.60;99.90
47520;DHT22;33252;48.122;11.538;2023-01-26T07:45:36;-0.80;99.90
47520;DHT22;33252;48.122;11.538;2023-01-26T07:48:01;-0.90;99.90
47520;DHT22;33252;48.122;11.538;2023-01-26T07:50:27;-0.90;99.90
47520;DHT22;33252;48.122;11.538;2023-01-26T07:52:53;-0.80;99.90
47520;DHT22;33252;48.122;11.538;2023-01-26T07:55:19;-0.50;99.90
47520;DHT22;33252;48.122;11.538;2023-01-26T07:57:48;-0.60;99.90
47520;DHT22;33252;48.122;11.538;2023-01-26T08:00:15;-0.60;99.90
47520;DHT22;33252;48.122;11.538;2023-01-26T08:02:40;-0.70;99.90
47520;DHT22;33252;48.122;11.538;2023-01-26T08:05:07;-0.70;99.90
47520;DHT22;33252;48.122;11.538;2023-01-26T08:07:33;-0.60;99.90
47520;DHT22;33252;48.122;11.538;2023-01-26T08:09:58;-0.50;99.90
47520;DHT22;33252;48.122;11.538;2023-01-26T08:12:25;-0.50;99.90
47520;DHT22;33252;48.122;11.538;2023-01-26T08:14:50;-0.70;99.90
47520;DHT22;33252;48.122;11.538;2023-01-26T08:17:16;-0.60;99.90
47520;DHT22;33252;48.122;11.538;2023-01-26T08:19:44;-0.60;99.90
47520;DHT22;33252;48.122;11.538;2023-01-26T08:22:09;-0.60;99.90
47520;DHT22;33252;48.122;11.538;2023-01-26T08:24:35;-0.60;99.90
47520;DHT22;33252;48.122;11.538;2023-01-26T08:27:01;-0.70;99.90
47520;DHT22;33252;48.122;11.538;2023-01-26T08:29:26;-0.60;99.90
47520;DHT22;33252;48.122;11.538;2023-01-26T08:31:52;-0.80;99.90
47520;DHT22;33252;48.122;11.538;2023-01-26T08:34:18;-0.70;99.90
47520;DHT22;33252;48.122;11.538;2023-01-26T08:36:46;-0.70;99.90
47520;DHT22;33252;48.122;11.538;2023-01-26T08:39:12;-0.60;99.90
47520;DHT22;33252;48.122;11.538;2023-01-26T08:41:37;-0.60;99.90
47520;DHT22;33252;48.122;11.538;2023-01-26T08:44:04;-0.60;99.90
47520;DHT22;33252;48.122;11.538;2023-01-26T08:46:30;-0.70;99.90
47520;DHT22;33252;48.122;11.538;2023-01-26T08:48:56;-0.70;99.90
47520;DHT22;33252;48.122;11.538;2023-01-26T08:51:22;-0.80;99.90
47520;DHT22;33252;48.122;11.538;2023-01-26T08:53:47;-0.60;99.90
47520;DHT22;33252;48.122;11.538;2023-01-26T08:56:13;-0.70;99.90
47520;DHT22;33252;48.122;11.538;2023-01-26T08:58:39;-0.60;99.90
47520;DHT22;33252;48.122;11.538;2023-01-26T09:01:05;-0.50;99.90
47520;DHT22;33252;48.122;11.538;2023-01-26T09:03:31;-0.60;99.90
47520;DHT22;33252;48.122;11.538;2023-01-26T09:06:01;-0.50;99.90
47520;DHT22;33252;48.122;11.538;2023-01-26T09:08:28;-0.50;99.90
47520;DHT22;33252;48.122;11.538;2023-01-26T09:10:54;-0.50;99.90
47520;DHT22;33252;48.122;11.538;2023-01-26T09:13:20;-0.60;99.90
47520;DHT22;33252;48.122;11.538;2023-01-26T09:15:46;-0.60;99.90
47520;DHT22;33252;48.122;11.538;2023-01-26T09:18:12;-0.50;99.90
47520;DHT22;33252;48.122;11.538;2023-01-26T09:20:38;-0.50;99.90
47520;DHT22;33252;48.122;11.538;2023-01-26T09:23:04;-0.50;99.90
47520;DHT22;33252;48.122;11.538;2023-01-26T09:25:29;-0.50;99.90
47520;DHT22;33252;48.122;11.538;2023-01-26T09:27:55;-0.50;99.90
47520;DHT22;33252;48.122;11.538;2023-01-26T09:30:21;-0.40;99.90
47520;DHT22;33252;48.122;11.538;2023-01-26T09:32:49;-0.50;99.90
47520;DHT22;33252;48.122;11.538;2023-01-26T09:35:15;-0.60;99.90
47520;DHT22;33252;48.122;11.538;2023-01-26T09:37:44;-0.60;99.90
47520;DHT22;33252;48.122;11.538;2023-01-26T09:40:21;-0.60;99.90
47520;DHT22;33252;48.122;11.538;2023-01-26T09:43:11;-0.60;99.90
47520;DHT22;33252;48.122;11.538;2023-01-26T09:45:59;-0.60;99.90
47520;DHT22;33252;48.122;11.538;2023-01-26T09:51:23;-0.50;99.90
47520;DHT22;33252;48.122;11.538;2023-01-26T09:53:56;-0.50;99.90
47520;DHT22;33252;48.122;11.538;2023-01-26T09:56:27;-0.50;99.90
47520;DHT22;33252;48.122;11.538;2023-01-26T09:58:59;-0.40;99.90
47520;DHT22;33252;48.122;11.538;2023-01-26T10:01:55;-0.50;99.90
47520;DHT22;33252;48.122;11.538;2023-01-26T10:04:33;-0.60;99.90
47520;DHT22;33252;48.122;11.538;2023-01-26T10:07:13;-0.40;99.90
47520;DHT22;33252;48.122;11.538;2023-01-26T10:09:41;-0.40;99.90
47520;DHT22;33252;48.122;11.538;2023-01-26T10:12:30;-0.40;99.90
47520;DHT22;33252;48.122;11.538;2023-01-26T10:15:06;-0.50;99.90
47520;DHT22;33252;48.122;11.538;2023-01-26T10:17:38;-0.40;99.90
47520;DHT22;33252;48.122;11.538;2023-01-26T10:22:46;-0.50;99.90
47520;DHT22;33252;48.122;11.538;2023-01-26T10:25:18;-0.50;99.90
47520;DHT22;33252;48.122;11.538;2023-01-26T10:27:45;-0.50;99.90
47520;DHT22;33252;48.122;11.538;2023-01-26T10:30:15;-0.60;99.90
47520;DHT22;33252;48.122;11.538;2023-01-26T10:32:42;-0.50;99.90
47520;DHT22;33252;48.122;11.538;2023-01-26T10:35:20;-0.50;99.90
47520;DHT22;33252;48.122;11.538;2023-01-26T10:37:47;-0.50;99.90
47520;DHT22;33252;48.122;11.538;2023-01-26T10:40:13;-0.50;99.90
47520;DHT22;33252;48.122;11.538;2023-01-26T10:42:39;-0.50;99.90
47520;DHT22;33252;48.122;11.538;2023-01-26T10:45:32;-0.50;99.90
47520;DHT22;33252;48.122;11.538;2023-01-26T10:50:41;-0.40;99.90
47520;DHT22;33252;48.122;11.538;2023-01-26T10:56:04;-0.40;99.90
47520;DHT22;33252;48.122;11.538;2023-01-26T10:58:44;-0.30;99.90
47520;DHT22;33252;48.122;11.538;2023-01-26T11:01:12;-0.30;99.90
47520;DHT22;33252;48.122;11.538;2023-01-26T11:03:39;-0.30;99.90
47520;DHT22;33252;48.122;11.538;2023-01-26T11:06:10;-0.40;99.90
47520;DHT22;33252;48.122;11.538;2023-01-26T11:08:38;-0.40;99.90
47520;DHT22;33252;48.122;11.538;2023-01-26T11:11:05;-0.40;99.90
47520;DHT22;33252;48.122;11.538;2023-01-26T11:13:35;-0.50;99.90
47520;DHT22;33252;48.122;11.538;2023-01-26T11:16:14;-0.50;99.90
47520;DHT22;33252;48.122;11.538;2023-01-26T11:21:54;-0.30;99.90
47520;DHT22;33252;48.122;11.538;2023-01-26T11:32:34;-0.20;99.90
47520;DHT22;33252;48.122;11.538;2023-01-26T11:49:24;-0.50;99.90
47520;DHT22;33252;48.122;11.538;2023-01-26T11:55:09;-0.40;99.90
47520;DHT22;33252;48.122;11.538;2023-01-26T12:02:42;-0.40;99.90
47520;DHT22;33252;48.122;11.538;2023-01-26T12:05:27;-0.30;99.90
47520;DHT22;33252;48.122;11.538;2023-01-26T12:10:40;-0.20;99.90
47520;DHT22;33252;48.122;11.538;2023-01-26T12:13:51;-0.30;99.90
47520;DHT22;33252;48.122;11.538;2023-01-26T12:21:48;-0.10;99.90
47520;DHT22;33252;48.122;11.538;2023-01-26T12:24:23;-0.30;99.90
47520;DHT22;33252;48.122;11.538;2023-01-26T12:26:52;-0.30;99.90
47520;DHT22;33252;48.122;11.538;2023-01-26T12:29:29;-0.30;99.90
47520;DHT22;33252;48.122;11.538;2023-01-26T12:32:09;-0.30;99.90
47520;DHT22;33252;48.122;11.538;2023-01-26T12:34:35;-0.20;99.90
47520;DHT22;33252;48.122;11.538;2023-01-26T12:37:20;-0.30;99.90
47520;DHT22;33252;48.122;11.538;2023-01-26T12:39:52;-0.30;99.90
47520;DHT22;33252;48.122;11.538;2023-01-26T12:47:35;-0.30;99.90
47520;DHT22;33252;48.122;11.538;2023-01-26T12:55:48;-0.30;99.90
47520;DHT22;33252;48.122;11.538;2023-01-26T12:58:24;-0.20;99.90
47520;DHT22;33252;48.122;11.538;2023-01-26T13:01:11;-0.20;99.90
47520;DHT22;33252;48.122;11.538;2023-01-26T13:11:05;-0.40;99.90
47520;DHT22;33252;48.122;11.538;2023-01-26T13:13:52;-0.40;99.90
47520;DHT22;33252;48.122;11.538;2023-01-26T13:18:54;-0.40;99.90
47520;DHT22;33252;48.122;11.538;2023-01-26T13:26:48;-0.40;99.90
47520;DHT22;33252;48.122;11.538;2023-01-26T13:31:54;-0.40;99.90
47520;DHT22;33252;48.122;11.538;2023-01-26T13:34:27;-0.50;99.90
47520;DHT22;33252;48.122;11.538;2023-01-26T13:37:02;-0.40;99.90
47520;DHT22;33252;48.122;11.538;2023-01-26T13:39:33;-0.40;99.90
47520;DHT22;33252;48.122;11.538;2023-01-26T13:41:59;-0.40;99.90
47520;DHT22;33252;48.122;11.538;2023-01-26T13:44:45;-0.40;99.90
47520;DHT22;33252;48.122;11.538;2023-01-26T13:47:16;-0.50;99.90
47520;DHT22;33252;48.122;11.538;2023-01-26T13:49:43;-0.60;99.90
47520;DHT22;33252;48.122;11.538;2023-01-26T13:52:16;-0.50;99.90
47520;DHT22;33252;48.122;11.538;2023-01-26T13:54:43;-0.60;99.90
47520;DHT22;33252;48.122;11.538;2023-01-26T13:57:10;-0.60;99.90
47520;DHT22;33252;48.122;11.538;2023-01-26T13:59:58;-0.60;99.90
47520;DHT22;33252;48.122;11.538;2023-01-26T14:02:30;-0.60;99.90
47520;DHT22;33252;48.122;11.538;2023-01-26T14:04:57;-0.50;99.90
47520;DHT22;33252;48.122;11.538;2023-01-26T14:07:42;-0.50;99.90
47520;DHT22;33252;48.122;11.538;2023-01-26T14:10:17;-0.60;99.90
47520;DHT22;33252;48.122;11.538;2023-01-26T14:12:51;-0.60;99.90
47520;DHT22;33252;48.122;11.538;2023-01-26T14:15:28;-0.60;99.90
47520;DHT22;33252;48.122;11.538;2023-01-26T14:17:57;-0.50;99.90
47520;DHT22;33252;48.122;11.538;2023-01-26T14:20:30;-0.40;99.90
47520;DHT22;33252;48.122;11.538;2023-01-26T14:25:43;-0.40;99.90
47520;DHT22;33252;48.122;11.538;2023-01-26T14:28:19;-0.50;99.90
47520;DHT22;33252;48.122;11.538;2023-01-26T14:30:50;-0.60;99.90
47520;DHT22;33252;48.122;11.538;2023-01-26T14:33:17;-0.60;99.90
47520;DHT22;33252;48.122;11.538;2023-01-26T14:35:55;-0.60;99.90
47520;DHT22;33252;48.122;11.538;2023-01-26T14:38:21;-0.60;99.90
47520;DHT22;33252;48.122;11.538;2023-01-26T14:40:51;-0.50;99.90
47520;DHT22;33252;48.122;11.538;2023-01-26T14:43:18;-0.50;99.90
47520;DHT22;33252;48.122;11.538;2023-01-26T14:48:14;-0.60;99.90
47520;DHT22;33252;48.122;11.538;2023-01-26T14:50:43;-0.60;99.90
47520;DHT22;33252;48.122;11.538;2023-01-26T14:53:18;-0.60;99.90
47520;DHT22;33252;48.122;11.538;2023-01-26T14:55:45;-0.60;99.90
47520;DHT22;33252;48.122;11.538;2023-01-26T14:58:14;-0.60;99.90
47520;DHT22;33252;48.122;11.538;2023-01-26T15:00:46;-0.60;99.90
47520;DHT22;33252;48.122;11.538;2023-01-26T15:03:22;-0.60;99.90
47520;DHT22;33252;48.122;11.538;2023-01-26T15:06:24;-0.60;99.90
47520;DHT22;33252;48.122;11.538;2023-01-26T15:08:54;-0.60;99.90
47520;DHT22;33252;48.122;11.538;2023-01-26T15:11:39;-0.70;99.90
47520;DHT22;33252;48.122;11.538;2023-01-26T15:14:36;-0.70;99.90
47520;DHT22;33252;48.122;11.538;2023-01-26T15:17:03;-0.80;99.90
47520;DHT22;33252;48.122;11.538;2023-01-26T15:19:38;-0.80;99.90
47520;DHT22;33252;48.122;11.538;2023-01-26T15:22:13;-0.70;99.90
47520;DHT22;33252;48.122;11.538;2023-01-26T15:24:56;-0.70;99.90
47520;DHT22;33252;48.122;11.538;2023-01-26T15:27:23;-0.60;99.90
47520;DHT22;33252;48.122;11.538;2023-01-26T15:29:56;-0.60;99.90
47520;DHT22;33252;48.122;11.538;2023-01-26T15:32:37;-0.60;99.90
47520;DHT22;33252;48.122;11.538;2023-01-26T15:35:26;-0.60;99.90
47520;DHT22;33252;48.122;11.538;2023-01-26T15:40:24;-0.60;99.90
47520;DHT22;33252;48.122;11.538;2023-01-26T15:42:50;-0.70;99.90
47520;DHT22;33252;48.122;11.538;2023-01-26T15:45:28;-0.60;99.90
47520;DHT22;33252;48.122;11.538;2023-01-26T15:47:57;-0.70;99.90
47520;DHT22;33252;48.122;11.538;2023-01-26T15:50:25;-0.70;99.90
47520;DHT22;33252;48.122;11.538;2023-01-26T15:52:51;-0.70;99.90
47520;DHT22;33252;48.122;11.538;2023-01-26T15:55:23;-0.70;99.90
47520;DHT22;33252;48.122;11.538;2023-01-26T15:57:50;-0.60;99.90
47520;DHT22;33252;48.122;11.538;2023-01-26T16:00:16;-0.60;99.90
47520;DHT22;33252;48.122;11.538;2023-01-26T16:02:42;-0.60;99.90
47520;DHT22;33252;48.122;11.538;2023-01-26T16:05:15;-0.70;99.90
47520;DHT22;33252;48.122;11.538;2023-01-26T16:07:40;-0.60;99.90
47520;DHT22;33252;48.122;11.538;2023-01-26T16:10:07;-0.60;99.90
47520;DHT22;33252;48.122;11.538;2023-01-26T16:12:32;-0.70;99.90
47520;DHT22;33252;48.122;11.538;2023-01-26T16:14:59;-0.70;99.90
47520;DHT22;33252;48.122;11.538;2023-01-26T16:17:24;-0.70;99.90
47520;DHT22;33252;48.122;11.538;2023-01-26T16:19:50;-0.80;99.90
47520;DHT22;33252;48.122;11.538;2023-01-26T16:22:16;-0.70;99.90
47520;DHT22;33252;48.122;11.538;2023-01-26T16:24:41;-0.80;99.90
47520;DHT22;33252;48.122;11.538;2023-01-26T16:27:08;-0.80;99.90
47520;DHT22;33252;48.122;11.538;2023-01-26T16:29:34;-0.70;99.90
47520;DHT22;33252;48.122;11.538;2023-01-26T16:32:00;-0.80;99.90
47520;DHT22;33252;48.122;11.538;2023-01-26T16:34:27;-0.70;99.90
47520;DHT22;33252;48.122;11.538;2023-01-26T16:36:53;-0.60;99.90
47520;DHT22;33252;48.122;11.538;2023-01-26T16:39:20;-0.60;99.90
47520;DHT22;33252;48.122;11.538;2023-01-26T16:41:45;-0.60;99.90
47520;DHT22;33252;48.122;11.538;2023-01-26T16:44:13;-0.80;99.90
47520;DHT22;33252;48.122;11.538;2023-01-26T16:46:39;-0.70;99.90
47520;DHT22;33252;48.122;11.538;2023-01-26T16:49:05;-0.90;99.90
47520;DHT22;33252;48.122;11.538;2023-01-26T16:51:36;-0.70;99.90
47520;DHT22;33252;48.122;11.538;2023-01-26T16:54:03;-0.90;99.90
47520;DHT22;33252;48.122;11.538;2023-01-26T16:56:29;-0.90;99.90
47520;DHT22;33252;48.122;11.538;2023-01-26T16:58:56;-0.90;99.90
47520;DHT22;33252;48.122;11.538;2023-01-26T17:01:30;-0.90;99.90
47520;DHT22;33252;48.122;11.538;2023-01-26T17:03:57;-0.80;99.90
47520;DHT22;33252;48.122;11.538;2023-01-26T17:06:23;-0.90;99.90
47520;DHT22;33252;48.122;11.538;2023-01-26T17:08:49;-0.90;99.90
47520;DHT22;33252;48.122;11.538;2023-01-26T17:11:17;-1.00;99.90